sensor_id;sensor_type;location;lat;lon;timestamp;pressure;altitude;pressure_sealevel;temperature;humidity
21730;BME280;11027;51.030;13.812;2023-02-19T00:01:29;100126.41;;;10.15;80.73
21730;BME280;11027;51.030;13.812;2023-02-19T00:04:00;100119.56;;;10.19;80.51
21730;BME280;11027;51.030;13.812;2023-02-19T00:06:28;100124.00;;;10.20;80.56
21730;BME280;11027;51.030;13.812;2023-02-19T00:08:54;100113.47;;;10.17;80.44
21730;BME280;11027;51.030;13.812;2023-02-19T00:11:22;100112.63;;;10.17;80.49
21730;BME280;11027;51.030;13.812;2023-02-19T00:13:49;100113.47;;;10.17;80.49
21730;BME280;11027;51.030;13.812;2023-02-19T00:16:20;100110.06;;;10.15;80.51
21730;BME280;11027;51.030;13.812;2023-02-19T00:18:46;100109.56;;;10.20;80.29
21730;BME280;11027;51.030;13.812;2023-02-19T00:21:12;100102.22;;;10.20;80.24
21730;BME280;11027;51.030;13.812;2023-02-19T00:23:38;100104.28;;;10.18;80.07
21730;BME280;11027;51.030;13.812;2023-02-19T00:26:08;100102.22;;;10.20;79.82
21730;BME280;11027;51.030;13.812;2023-02-19T00:28:34;100103.72;;;10.23;79.84
21730;BME280;11027;51.030;13.812;2023-02-19T00:31:08;100108.34;;;10.23;79.43
21730;BME280;11027;51.030;13.812;2023-02-19T00:33:33;100104.94;;;10.20;79.42
21730;BME280;11027;51.030;13.812;2023-02-19T00:36:00;100101.72;;;10.17;79.55
21730;BME280;11027;51.030;13.812;2023-02-19T00:38:26;100111.41;;;10.19;79.91
21730;BME280;11027;51.030;13.812;2023-02-19T00:40:51;100101.72;;;10.17;79.75
21730;BME280;11027;51.030;13.812;2023-02-19T00:43:17;100106.63;;;10.21;79.79
21730;BME280;11027;51.030;13.812;2023-02-19T00:45:42;100098.00;;;10.18;79.49
21730;BME280;11027;51.030;13.812;2023-02-19T00:48:07;100093.75;;;10.15;79.73
21730;BME280;11027;51.030;13.812;2023-02-19T00:50:32;100084.06;;;10.13;79.83
21730;BME280;11027;51.030;13.812;2023-02-19T00:52:58;100099.91;;;10.09;79.95
21730;BME280;11027;51.030;13.812;2023-02-19T00:55:23;100094.81;;;10.06;80.03
21730;BME280;11027;51.030;13.812;2023-02-19T00:57:48;100087.69;;;10.05;80.37
21730;BME280;11027;51.030;13.812;2023-02-19T01:00:14;100075.13;;;10.04;80.10
21730;BME280;11027;51.030;13.812;2023-02-19T01:02:39;100087.69;;;10.05;80.25
21730;BME280;11027;51.030;13.812;2023-02-19T01:05:05;100085.63;;;10.07;80.19
21730;BME280;11027;51.030;13.812;2023-02-19T01:07:30;100078.84;;;10.03;80.10
21730;BME280;11027;51.030;13.812;2023-02-19T01:09:55;100089.72;;;10.03;79.85
21730;BME280;11027;51.030;13.812;2023-02-19T01:12:20;100066.28;;;10.02;79.93
21730;BME280;11027;51.030;13.812;2023-02-19T01:14:48;100068.44;;;10.07;80.01
21730;BME280;11027;51.030;13.812;2023-02-19T01:17:13;100061.44;;;10.12;79.62
21730;BME280;11027;51.030;13.812;2023-02-19T01:19:38;100053.94;;;10.14;79.61
21730;BME280;11027;51.030;13.812;2023-02-19T01:22:03;100052.25;;;10.13;79.21
21730;BME280;11027;51.030;13.812;2023-02-19T01:24:29;100050.25;;;10.07;79.24
21730;BME280;11027;51.030;13.812;2023-02-19T01:26:54;100043.13;;;10.06;79.06
21730;BME280;11027;51.030;13.812;2023-02-19T01:29:19;100039.53;;;10.06;79.15
21730;BME280;11027;51.030;13.812;2023-02-19T01:31:45;100040.75;;;10.03;79.13
21730;BME280;11027;51.030;13.812;2023-02-19T01:34:10;100038.34;;;10.08;79.39
21730;BME280;11027;51.030;13.812;2023-02-19T01:36:36;100025.41;;;10.10;79.07
21730;BME280;11027;51.030;13.812;2023-02-19T01:39:04;100020.41;;;10.14;79.28
21730;BME280;11027;51.030;13.812;2023-02-19T01:41:36;100007.00;;;10.12;79.37
21730;BME280;11027;51.030;13.812;2023-02-19T01:46:37;100009.72;;;10.12;80.23
21730;BME280;11027;51.030;13.812;2023-02-19T01:49:14;100005.13;;;10.13;80.67
21730;BME280;11027;51.030;13.812;2023-02-19T01:51:47;99998.19;;;10.10;81.39
21730;BME280;11027;51.030;13.812;2023-02-19T01:54:15;100001.41;;;10.06;82.01
21730;BME280;11027;51.030;13.812;2023-02-19T01:56:42;99997.56;;;10.00;82.81
21730;BME280;11027;51.030;13.812;2023-02-19T01:59:09;99987.03;;;9.97;83.41
21730;BME280;11027;51.030;13.812;2023-02-19T02:01:36;99995.38;;;9.95;83.64
21730;BME280;11027;51.030;13.812;2023-02-19T02:04:04;99987.41;;;9.94;83.94
21730;BME280;11027;51.030;13.812;2023-02-19T02:06:35;99994.59;;;9.87;84.51
21730;BME280;11027;51.030;13.812;2023-02-19T02:09:03;99990.88;;;9.79;85.23
21730;BME280;11027;51.030;13.812;2023-02-19T02:11:49;99977.94;;;9.81;85.44
21730;BME280;11027;51.030;13.812;2023-02-19T02:14:23;99978.44;;;9.85;85.36
21730;BME280;11027;51.030;13.812;2023-02-19T02:17:10;99964.16;;;9.83;85.40
21730;BME280;11027;51.030;13.812;2023-02-19T02:20:00;99970.44;;;9.84;85.51
21730;BME280;11027;51.030;13.812;2023-02-19T02:22:35;99977.78;;;9.83;86.04
21730;BME280;11027;51.030;13.812;2023-02-19T02:25:27;99966.38;;;9.79;86.36
21730;BME280;11027;51.030;13.812;2023-02-19T02:33:10;99959.28;;;9.78;86.91
21730;BME280;11027;51.030;13.812;2023-02-19T02:35:44;99962.72;;;9.72;87.28
21730;BME280;11027;51.030;13.812;2023-02-19T02:38:12;99965.78;;;9.69;87.43
21730;BME280;11027;51.030;13.812;2023-02-19T02:40:41;99955.44;;;9.65;87.98
21730;BME280;11027;51.030;13.812;2023-02-19T02:43:07;99953.56;;;9.65;88.18
21730;BME280;11027;51.030;13.812;2023-02-19T02:45:32;99945.78;;;9.62;88.67
21730;BME280;11027;51.030;13.812;2023-02-19T02:48:09;99950.63;;;9.52;89.07
21730;BME280;11027;51.030;13.812;2023-02-19T02:50:49;99927.16;;;9.51;89.56
21730;BME280;11027;51.030;13.812;2023-02-19T02:53:31;99943.47;;;9.51;89.83
21730;BME280;11027;51.030;13.812;2023-02-19T02:56:17;99947.22;;;9.50;90.22
21730;BME280;11027;51.030;13.812;2023-02-19T02:58:43;99941.13;;;9.48;90.69
21730;BME280;11027;51.030;13.812;2023-02-19T03:01:15;99928.25;;;9.41;90.86
21730;BME280;11027;51.030;13.812;2023-02-19T03:04:04;99919.75;;;9.36;91.51
21730;BME280;11027;51.030;13.812;2023-02-19T03:06:33;99910.22;;;9.40;91.62
21730;BME280;11027;51.030;13.812;2023-02-19T03:09:11;99914.09;;;9.46;91.60
21730;BME280;11027;51.030;13.812;2023-02-19T03:11:41;99904.06;;;9.47;91.54
21730;BME280;11027;51.030;13.812;2023-02-19T03:14:54;99909.66;;;9.45;91.72
21730;BME280;11027;51.030;13.812;2023-02-19T03:17:45;99908.16;;;9.43;91.25
21730;BME280;11027;51.030;13.812;2023-02-19T03:20:33;99907.53;;;9.32;91.26
21730;BME280;11027;51.030;13.812;2023-02-19T03:23:00;99909.97;;;9.27;92.15
21730;BME280;11027;51.030;13.812;2023-02-19T03:25:30;99907.59;;;9.24;92.46
21730;BME280;11027;51.030;13.812;2023-02-19T03:28:15;99895.06;;;9.23;92.15
21730;BME280;11027;51.030;13.812;2023-02-19T03:30:46;99891.47;;;9.23;92.42
21730;BME280;11027;51.030;13.812;2023-02-19T03:33:17;99891.97;;;9.26;92.23
21730;BME280;11027;51.030;13.812;2023-02-19T03:35:48;99888.53;;;9.32;91.89
21730;BME280;11027;51.030;13.812;2023-02-19T03:38:30;99884.13;;;9.31;91.94
21730;BME280;11027;51.030;13.812;2023-02-19T03:43:39;99881.34;;;9.39;91.94
21730;BME280;11027;51.030;13.812;2023-02-19T03:46:14;99886.59;;;9.41;91.79
21730;BME280;11027;51.030;13.812;2023-02-19T03:48:53;99877.59;;;9.40;91.89
21730;BME280;11027;51.030;13.812;2023-02-19T03:51:43;99878.31;;;9.34;92.31
21730;BME280;11027;51.030;13.812;2023-02-19T03:54:21;99874.09;;;9.32;92.70
21730;BME280;11027;51.030;13.812;2023-02-19T03:57:02;99869.16;;;9.35;92.38
21730;BME280;11027;51.030;13.812;2023-02-19T03:59:49;99858.63;;;9.32;92.79
21730;BME280;11027;51.030;13.812;2023-02-19T04:05:04;99851.50;;;9.31;92.54
21730;BME280;11027;51.030;13.812;2023-02-19T04:07:34;99850.78;;;9.37;92.56
21730;BME280;11027;51.030;13.812;2023-02-19T04:10:02;99841.09;;;9.35;92.15
21730;BME280;11027;51.030;13.812;2023-02-19T04:12:28;99847.41;;;9.35;92.03
21730;BME280;11027;51.030;13.812;2023-02-19T04:15:01;99840.91;;;9.36;91.96
21730;BME280;11027;51.030;13.812;2023-02-19T04:17:31;99853.19;;;9.32;91.62
21730;BME280;11027;51.030;13.812;2023-02-19T04:19:59;99845.56;;;9.28;91.17
21730;BME280;11027;51.030;13.812;2023-02-19T04:22:26;99843.88;;;9.27;91.08
21730;BME280;11027;51.030;13.812;2023-02-19T04:24:53;99848.47;;;9.26;90.74
21730;BME280;11027;51.030;13.812;2023-02-19T04:27:19;99847.47;;;9.27;90.63
21730;BME280;11027;51.030;13.812;2023-02-19T04:29:45;99840.31;;;9.26;90.71
21730;BME280;11027;51.030;13.812;2023-02-19T04:32:11;99837.25;;;9.29;90.61
21730;BME280;11027;51.030;13.812;2023-02-19T04:34:37;99835.91;;;9.25;90.70
21730;BME280;11027;51.030;13.812;2023-02-19T04:37:02;99851.00;;;9.28;90.78
21730;BME280;11027;51.030;13.812;2023-02-19T04:39:28;99827.56;;;9.27;90.72
21730;BME280;11027;51.030;13.812;2023-02-19T04:41:53;99832.66;;;9.30;91.02
21730;BME280;11027;51.030;13.812;2023-02-19T04:44:19;99834.31;;;9.31;91.13
21730;BME280;11027;51.030;13.812;2023-02-19T04:46:44;99828.22;;;9.29;91.29
21730;BME280;11027;51.030;13.812;2023-02-19T04:49:09;99824.66;;;9.28;91.58
21730;BME280;11027;51.030;13.812;2023-02-19T04:51:34;99810.78;;;9.23;91.75
21730;BME280;11027;51.030;13.812;2023-02-19T04:54:00;99811.31;;;9.18;91.96
21730;BME280;11027;51.030;13.812;2023-02-19T04:56:25;99807.41;;;9.21;92.26
21730;BME280;11027;51.030;13.812;2023-02-19T04:58:50;99808.72;;;9.25;92.28
21730;BME280;11027;51.030;13.812;2023-02-19T05:01:16;99801.25;;;9.27;92.28
21730;BME280;11027;51.030;13.812;2023-02-19T05:03:43;99809.56;;;9.26;92.28
21730;BME280;11027;51.030;13.812;2023-02-19T05:06:12;99820.44;;;9.26;92.43
21730;BME280;11027;51.030;13.812;2023-02-19T05:08:37;99810.78;;;9.23;92.50
21730;BME280;11027;51.030;13.812;2023-02-19T05:11:04;99825.75;;;9.19;92.86
21730;BME280;11027;51.030;13.812;2023-02-19T05:13:30;99827.44;;;9.20;93.46
21730;BME280;11027;51.030;13.812;2023-02-19T05:15:57;99823.34;;;9.24;93.94
21730;BME280;11027;51.030;13.812;2023-02-19T05:18:24;99833.88;;;9.27;94.13
21730;BME280;11027;51.030;13.812;2023-02-19T05:20:50;99836.63;;;9.19;94.17
21730;BME280;11027;51.030;13.812;2023-02-19T05:23:16;99844.47;;;9.14;95.15
21730;BME280;11027;51.030;13.812;2023-02-19T05:25:41;99842.75;;;9.13;95.69
21730;BME280;11027;51.030;13.812;2023-02-19T05:28:07;99842.41;;;9.16;96.11
21730;BME280;11027;51.030;13.812;2023-02-19T05:30:41;99832.25;;;9.10;96.68
21730;BME280;11027;51.030;13.812;2023-02-19T05:33:06;99836.84;;;9.09;97.25
21730;BME280;11027;51.030;13.812;2023-02-19T05:35:32;99837.38;;;9.05;97.54
21730;BME280;11027;51.030;13.812;2023-02-19T05:37:57;99839.13;;;8.97;98.04
21730;BME280;11027;51.030;13.812;2023-02-19T05:40:22;99843.34;;;9.00;98.34
21730;BME280;11027;51.030;13.812;2023-02-19T05:42:47;99839.13;;;8.97;98.86
21730;BME280;11027;51.030;13.812;2023-02-19T05:45:13;99840.47;;;9.01;98.97
21730;BME280;11027;51.030;13.812;2023-02-19T05:47:38;99839.63;;;9.01;98.81
21730;BME280;11027;51.030;13.812;2023-02-19T05:50:03;99849.16;;;8.97;98.41
21730;BME280;11027;51.030;13.812;2023-02-19T05:52:29;99858.19;;;8.89;96.69
21730;BME280;11027;51.030;13.812;2023-02-19T05:54:54;99846.69;;;8.79;95.86
21730;BME280;11027;51.030;13.812;2023-02-19T05:57:19;99849.09;;;8.74;95.79
21730;BME280;11027;51.030;13.812;2023-02-19T05:59:45;99853.19;;;8.70;95.94
21730;BME280;11027;51.030;13.812;2023-02-19T06:02:11;99858.97;;;8.67;95.61
21730;BME280;11027;51.030;13.812;2023-02-19T06:04:37;99858.09;;;8.66;95.49
21730;BME280;11027;51.030;13.812;2023-02-19T06:07:02;99871.69;;;8.66;95.73
21730;BME280;11027;51.030;13.812;2023-02-19T06:09:27;99878.66;;;8.69;95.90
21730;BME280;11027;51.030;13.812;2023-02-19T06:11:52;99866.91;;;8.68;96.22
21730;BME280;11027;51.030;13.812;2023-02-19T06:14:18;99882.38;;;8.68;95.95
21730;BME280;11027;51.030;13.812;2023-02-19T06:16:43;99878.16;;;8.65;96.03
21730;BME280;11027;51.030;13.812;2023-02-19T06:19:08;99872.72;;;8.65;96.26
21730;BME280;11027;51.030;13.812;2023-02-19T06:21:34;99882.38;;;8.68;96.07
21730;BME280;11027;51.030;13.812;2023-02-19T06:24:04;99884.09;;;8.69;96.04
21730;BME280;11027;51.030;13.812;2023-02-19T06:26:30;99886.28;;;8.73;95.99
21730;BME280;11027;51.030;13.812;2023-02-19T06:28:55;99901.34;;;8.76;95.46
21730;BME280;11027;51.030;13.812;2023-02-19T06:31:21;99886.78;;;8.77;95.38
21730;BME280;11027;51.030;13.812;2023-02-19T06:33:46;99903.06;;;8.77;95.19
21730;BME280;11027;51.030;13.812;2023-02-19T06:36:14;99896.59;;;8.78;95.24
21730;BME280;11027;51.030;13.812;2023-02-19T06:38:40;99896.59;;;8.78;95.12
21730;BME280;11027;51.030;13.812;2023-02-19T06:41:06;99901.69;;;8.81;95.14
21730;BME280;11027;51.030;13.812;2023-02-19T06:43:32;99900.31;;;8.85;94.75
21730;BME280;11027;51.030;13.812;2023-02-19T06:45:58;99896.22;;;8.89;94.52
21730;BME280;11027;51.030;13.812;2023-02-19T06:48:27;99908.59;;;8.92;94.11
21730;BME280;11027;51.030;13.812;2023-02-19T06:50:53;99902.63;;;8.96;93.81
21730;BME280;11027;51.030;13.812;2023-02-19T06:53:18;99915.91;;;8.91;93.17
21730;BME280;11027;51.030;13.812;2023-02-19T06:55:43;99916.63;;;8.85;93.15
21730;BME280;11027;51.030;13.812;2023-02-19T06:58:09;99917.13;;;8.89;93.56
21730;BME280;11027;51.030;13.812;2023-02-19T07:00:34;99920.31;;;8.92;93.64
21730;BME280;11027;51.030;13.812;2023-02-19T07:03:00;99924.38;;;8.96;93.43
21730;BME280;11027;51.030;13.812;2023-02-19T07:05:25;99915.91;;;8.91;93.30
21730;BME280;11027;51.030;13.812;2023-02-19T07:07:51;99930.16;;;8.93;93.34
21730;BME280;11027;51.030;13.812;2023-02-19T07:10:16;99928.13;;;8.95;93.23
21730;BME280;11027;51.030;13.812;2023-02-19T07:12:41;99935.59;;;8.93;93.37
21730;BME280;11027;51.030;13.812;2023-02-19T07:15:07;99945.13;;;8.89;93.48
21730;BME280;11027;51.030;13.812;2023-02-19T07:17:33;99946.34;;;8.87;94.07
21730;BME280;11027;51.030;13.812;2023-02-19T07:19:59;99947.16;;;8.87;94.22
21730;BME280;11027;51.030;13.812;2023-02-19T07:22:24;99956.31;;;8.86;94.68
21730;BME280;11027;51.030;13.812;2023-02-19T07:24:49;99959.56;;;8.81;94.97
21730;BME280;11027;51.030;13.812;2023-02-19T07:27:14;99965.88;;;8.74;95.95
21730;BME280;11027;51.030;13.812;2023-02-19T07:29:40;99965.88;;;8.74;96.66
21730;BME280;11027;51.030;13.812;2023-02-19T07:32:05;99968.44;;;8.67;97.30
21730;BME280;11027;51.030;13.812;2023-02-19T07:34:30;99969.28;;;8.68;97.83
21730;BME280;11027;51.030;13.812;2023-02-19T07:36:55;99986.94;;;8.64;98.19
21730;BME280;11027;51.030;13.812;2023-02-19T07:39:21;99987.09;;;8.62;98.65
21730;BME280;11027;51.030;13.812;2023-02-19T07:41:46;100004.59;;;8.59;98.28
21730;BME280;11027;51.030;13.812;2023-02-19T07:44:11;100006.66;;;8.57;97.52
21730;BME280;11027;51.030;13.812;2023-02-19T07:46:40;100022.94;;;8.57;96.67
21730;BME280;11027;51.030;13.812;2023-02-19T07:49:05;100020.56;;;8.63;96.04
21730;BME280;11027;51.030;13.812;2023-02-19T07:51:31;100020.91;;;8.59;94.83
21730;BME280;11027;51.030;13.812;2023-02-19T07:53:56;100034.47;;;8.51;93.32
21730;BME280;11027;51.030;13.812;2023-02-19T07:56:22;100036.84;;;8.46;92.24
21730;BME280;11027;51.030;13.812;2023-02-19T07:58:48;100050.09;;;8.41;91.65
21730;BME280;11027;51.030;13.812;2023-02-19T08:01:18;100048.34;;;8.40;91.61
21730;BME280;11027;51.030;13.812;2023-02-19T08:04:04;100053.78;;;8.40;91.17
21730;BME280;11027;51.030;13.812;2023-02-19T08:06:29;100055.81;;;8.38;90.98
21730;BME280;11027;51.030;13.812;2023-02-19T08:08:54;100067.34;;;8.40;90.79
21730;BME280;11027;51.030;13.812;2023-02-19T08:11:21;100068.94;;;8.43;90.69
21730;BME280;11027;51.030;13.812;2023-02-19T08:14:15;100082.00;;;8.55;90.45
21730;BME280;11027;51.030;13.812;2023-02-19T08:16:49;100085.38;;;8.66;89.92
21730;BME280;11027;51.030;13.812;2023-02-19T08:19:14;100096.94;;;8.59;88.64
21730;BME280;11027;51.030;13.812;2023-02-19T08:21:39;100090.81;;;8.49;87.56
21730;BME280;11027;51.030;13.812;2023-02-19T08:24:05;100102.16;;;8.36;86.66
21730;BME280;11027;51.030;13.812;2023-02-19T08:26:31;100109.41;;;8.28;86.50
21730;BME280;11027;51.030;13.812;2023-02-19T08:28:57;100111.81;;;8.23;86.75
21730;BME280;11027;51.030;13.812;2023-02-19T08:31:23;100137.25;;;8.30;87.07
21730;BME280;11027;51.030;13.812;2023-02-19T08:33:48;100148.09;;;8.21;86.30
21730;BME280;11027;51.030;13.812;2023-02-19T08:36:13;100149.75;;;8.06;85.77
21730;BME280;11027;51.030;13.812;2023-02-19T08:38:39;100161.94;;;7.94;85.92
21730;BME280;11027;51.030;13.812;2023-02-19T08:41:05;100171.91;;;7.93;86.45
21730;BME280;11027;51.030;13.812;2023-02-19T08:43:31;100177.19;;;8.03;86.49
21730;BME280;11027;51.030;13.812;2023-02-19T08:45:56;100168.38;;;8.01;85.42
21730;BME280;11027;51.030;13.812;2023-02-19T08:48:22;100186.03;;;8.05;84.82
21730;BME280;11027;51.030;13.812;2023-02-19T08:50:59;100195.84;;;7.98;83.62
21730;BME280;11027;51.030;13.812;2023-02-19T08:53:24;100205.63;;;7.91;83.07
21730;BME280;11027;51.030;13.812;2023-02-19T08:55:51;100216.97;;;7.86;82.75
21730;BME280;11027;51.030;13.812;2023-02-19T08:58:16;100219.81;;;7.76;82.38
21730;BME280;11027;51.030;13.812;2023-02-19T09:00:42;100237.38;;;7.64;81.98
21730;BME280;11027;51.030;13.812;2023-02-19T09:03:08;100251.50;;;7.50;82.31
21730;BME280;11027;51.030;13.812;2023-02-19T09:05:33;100259.88;;;7.38;82.87
21730;BME280;11027;51.030;13.812;2023-02-19T09:07:58;100278.78;;;7.30;83.21
21730;BME280;11027;51.030;13.812;2023-02-19T09:10:23;100272.75;;;7.18;82.32
21730;BME280;11027;51.030;13.812;2023-02-19T09:12:49;100281.50;;;7.12;82.49
21730;BME280;11027;51.030;13.812;2023-02-19T09:15:14;100292.19;;;6.96;82.83
21730;BME280;11027;51.030;13.812;2023-02-19T09:17:39;100297.38;;;6.89;82.79
21730;BME280;11027;51.030;13.812;2023-02-19T09:20:04;100313.63;;;6.89;82.92
21730;BME280;11027;51.030;13.812;2023-02-19T09:22:30;100313.63;;;6.89;82.72
21730;BME280;11027;51.030;13.812;2023-02-19T09:24:55;100320.38;;;6.85;82.72
21730;BME280;11027;51.030;13.812;2023-02-19T09:27:20;100327.47;;;6.86;82.79
21730;BME280;11027;51.030;13.812;2023-02-19T09:29:46;100336.75;;;6.84;82.30
21730;BME280;11027;51.030;13.812;2023-02-19T09:32:11;100350.91;;;6.77;81.31
21730;BME280;11027;51.030;13.812;2023-02-19T09:34:36;100361.66;;;6.69;80.86
21730;BME280;11027;51.030;13.812;2023-02-19T09:37:06;100368.50;;;6.64;80.25
21730;BME280;11027;51.030;13.812;2023-02-19T09:39:31;100373.38;;;6.60;79.02
21730;BME280;11027;51.030;13.812;2023-02-19T09:42:00;100386.50;;;6.55;77.72
21730;BME280;11027;51.030;13.812;2023-02-19T09:44:30;100394.66;;;6.45;77.25
21730;BME280;11027;51.030;13.812;2023-02-19T09:46:57;100409.50;;;6.41;77.11
21730;BME280;11027;51.030;13.812;2023-02-19T09:49:31;100414.09;;;6.31;77.16
21730;BME280;11027;51.030;13.812;2023-02-19T09:52:04;100417.78;;;6.30;77.42
21730;BME280;11027;51.030;13.812;2023-02-19T09:54:32;100422.19;;;6.40;77.06
21730;BME280;11027;51.030;13.812;2023-02-19T09:57:00;100426.53;;;6.61;76.86
21730;BME280;11027;51.030;13.812;2023-02-19T09:59:30;100421.09;;;6.89;76.63
21730;BME280;11027;51.030;13.812;2023-02-19T10:02:11;100431.28;;;7.05;75.86
21730;BME280;11027;51.030;13.812;2023-02-19T10:04:40;100432.59;;;7.00;75.45
21730;BME280;11027;51.030;13.812;2023-02-19T10:07:10;100439.88;;;7.00;75.19
21730;BME280;11027;51.030;13.812;2023-02-19T10:09:37;100440.47;;;6.94;74.92
21730;BME280;11027;51.030;13.812;2023-02-19T10:12:10;100452.56;;;6.99;74.95
21730;BME280;11027;51.030;13.812;2023-02-19T10:14:41;100448.41;;;7.05;74.48
21730;BME280;11027;51.030;13.812;2023-02-19T10:17:16;100456.88;;;6.92;74.44
21730;BME280;11027;51.030;13.812;2023-02-19T10:19:45;100457.59;;;6.85;74.64
21730;BME280;11027;51.030;13.812;2023-02-19T10:22:11;100474.03;;;6.83;74.82
21730;BME280;11027;51.030;13.812;2023-02-19T10:24:39;100479.47;;;6.73;74.20
21730;BME280;11027;51.030;13.812;2023-02-19T10:27:11;100481.28;;;6.82;74.58
21730;BME280;11027;51.030;13.812;2023-02-19T10:29:37;100477.34;;;6.77;74.26
21730;BME280;11027;51.030;13.812;2023-02-19T10:32:23;100479.84;;;6.88;74.53
21730;BME280;11027;51.030;13.812;2023-02-19T10:37:35;100477.72;;;7.19;73.74
21730;BME280;11027;51.030;13.812;2023-02-19T10:40:13;100493.38;;;7.26;73.35
21730;BME280;11027;51.030;13.812;2023-02-19T10:42:44;100497.16;;;7.33;72.57
21730;BME280;11027;51.030;13.812;2023-02-19T10:45:17;100509.88;;;7.32;71.23
21730;BME280;11027;51.030;13.812;2023-02-19T10:47:45;100516.69;;;7.36;71.03
21730;BME280;11027;51.030;13.812;2023-02-19T10:50:35;100504.25;;;7.44;71.13
21730;BME280;11027;51.030;13.812;2023-02-19T10:53:20;100508.66;;;7.45;71.57
21730;BME280;11027;51.030;13.812;2023-02-19T10:55:47;100514.69;;;7.38;71.80
21730;BME280;11027;51.030;13.812;2023-02-19T10:58:25;100524.06;;;7.16;70.98
21730;BME280;11027;51.030;13.812;2023-02-19T11:01:17;100521.47;;;6.97;71.95
21730;BME280;11027;51.030;13.812;2023-02-19T11:03:47;100531.25;;;7.08;72.74
21730;BME280;11027;51.030;13.812;2023-02-19T11:06:14;100537.50;;;7.08;72.33
21730;BME280;11027;51.030;13.812;2023-02-19T11:08:48;100530.22;;;7.09;72.20
21730;BME280;11027;51.030;13.812;2023-02-19T11:11:35;100539.38;;;7.08;72.32
21730;BME280;11027;51.030;13.812;2023-02-19T11:14:13;100544.19;;;7.14;72.04
21730;BME280;11027;51.030;13.812;2023-02-19T11:16:47;100550.41;;;7.24;71.27
21730;BME280;11027;51.030;13.812;2023-02-19T11:19:32;100552.53;;;7.30;71.53
21730;BME280;11027;51.030;13.812;2023-02-19T11:22:00;100549.84;;;7.20;71.45
21730;BME280;11027;51.030;13.812;2023-02-19T11:24:32;100566.88;;;7.40;71.81
21730;BME280;11027;51.030;13.812;2023-02-19T11:27:00;100578.84;;;7.48;69.94
21730;BME280;11027;51.030;13.812;2023-02-19T11:29:27;100572.69;;;7.18;68.97
21730;BME280;11027;51.030;13.812;2023-02-19T11:32:20;100575.69;;;7.15;69.18
21730;BME280;11027;51.030;13.812;2023-02-19T11:34:46;100567.88;;;7.12;69.43
21730;BME280;11027;51.030;13.812;2023-02-19T11:37:16;100590.31;;;6.94;68.87
21730;BME280;11027;51.030;13.812;2023-02-19T11:39:44;100578.25;;;6.79;69.41
21730;BME280;11027;51.030;13.812;2023-02-19T11:45:12;100590.63;;;6.81;69.44
21730;BME280;11027;51.030;13.812;2023-02-19T11:50:48;100586.19;;;6.90;69.10
21730;BME280;11027;51.030;13.812;2023-02-19T11:53:24;100600.75;;;6.89;69.28
21730;BME280;11027;51.030;13.812;2023-02-19T11:56:24;100595.00;;;6.92;69.43
21730;BME280;11027;51.030;13.812;2023-02-19T12:02:02;100593.19;;;6.83;69.50
21730;BME280;11027;51.030;13.812;2023-02-19T12:05:04;100596.16;;;6.99;69.67
21730;BME280;11027;51.030;13.812;2023-02-19T12:08:03;100601.56;;;6.99;69.13
21730;BME280;11027;51.030;13.812;2023-02-19T12:10:47;100610.91;;;7.15;69.72
21730;BME280;11027;51.030;13.812;2023-02-19T12:13:26;100628.06;;;7.06;68.74
21730;BME280;11027;51.030;13.812;2023-02-19T12:16:17;100617.81;;;6.99;68.94
21730;BME280;11027;51.030;13.812;2023-02-19T12:19:00;100624.78;;;7.12;68.29
21730;BME280;11027;51.030;13.812;2023-02-19T12:24:19;100636.78;;;6.99;67.46
21730;BME280;11027;51.030;13.812;2023-02-19T12:38:16;100642.72;;;7.60;64.48
21730;BME280;11027;51.030;13.812;2023-02-19T12:41:12;100635.06;;;7.73;64.28
21730;BME280;11027;51.030;13.812;2023-02-19T12:43:45;100640.09;;;7.96;62.06
21730;BME280;11027;51.030;13.812;2023-02-19T12:46:19;100620.97;;;7.70;61.04
21730;BME280;11027;51.030;13.812;2023-02-19T12:48:58;100618.09;;;7.71;61.68
21730;BME280;11027;51.030;13.812;2023-02-19T12:51:43;100618.88;;;7.81;62.00
21730;BME280;11027;51.030;13.812;2023-02-19T12:54:22;100625.72;;;7.86;60.92
21730;BME280;11027;51.030;13.812;2023-02-19T12:57:12;100625.19;;;7.82;60.35
21730;BME280;11027;51.030;13.812;2023-02-19T12:59:45;100609.66;;;8.02;60.84
21730;BME280;11027;51.030;13.812;2023-02-19T13:02:23;100611.66;;;8.36;61.29
21730;BME280;11027;51.030;13.812;2023-02-19T13:04:55;100619.13;;;8.70;60.91
21730;BME280;11027;51.030;13.812;2023-02-19T13:07:27;100617.56;;;8.85;60.07
21730;BME280;11027;51.030;13.812;2023-02-19T13:09:58;100637.06;;;8.63;59.24
21730;BME280;11027;51.030;13.812;2023-02-19T13:12:28;100639.31;;;8.49;58.80
21730;BME280;11027;51.030;13.812;2023-02-19T13:14:57;100651.16;;;8.30;57.80
21730;BME280;11027;51.030;13.812;2023-02-19T13:17:36;100651.59;;;8.26;57.91
21730;BME280;11027;51.030;13.812;2023-02-19T13:20:33;100655.41;;;8.33;58.25
21730;BME280;11027;51.030;13.812;2023-02-19T13:34:34;100640.00;;;8.69;55.04
21730;BME280;11027;51.030;13.812;2023-02-19T13:37:04;100629.59;;;9.09;56.15
21730;BME280;11027;51.030;13.812;2023-02-19T13:39:29;100633.09;;;9.96;55.31
21730;BME280;11027;51.030;13.812;2023-02-19T13:41:56;100646.81;;;11.11;51.03
21730;BME280;11027;51.030;13.812;2023-02-19T13:44:33;100646.47;;;11.94;48.72
21730;BME280;11027;51.030;13.812;2023-02-19T13:46:58;100651.78;;;12.50;44.88
21730;BME280;11027;51.030;13.812;2023-02-19T13:49:38;100647.13;;;12.28;45.17
21730;BME280;11027;51.030;13.812;2023-02-19T13:52:34;100660.00;;;12.88;44.74
21730;BME280;11027;51.030;13.812;2023-02-19T13:55:42;100644.66;;;13.85;43.62
21730;BME280;11027;51.030;13.812;2023-02-19T13:58:52;100641.41;;;15.12;40.75
21730;BME280;11027;51.030;13.812;2023-02-19T14:01:18;100662.28;;;16.04;38.41